Time;durP1;ratioP1;P1;durP2;ratioP2;P2;SDS_P1;SDS_P2;PMS_P1;PMS_P2;Temp;Humidity;BMP_temperature;BMP_pressure;BME280_temperature;BME280_humidity;BME280_pressure;Samples;Min_cycle;Max_cycle;Signal;HPM_P1;HPM_P2
2022/05/11 00:04:15;;;;;;;4.93;4.53;;;;;;;20.07;51.71;100062.00;10371082;28;20051;-62
2022/05/11 00:09:17;;;;;;;5.50;4.95;;;;;;;20.01;51.70;100054.66;10355481;28;20045;-63
2022/05/11 00:14:19;;;;;;;5.63;5.13;;;;;;;19.98;51.89;100055.00;10370679;28;20045;-63
2022/05/11 00:19:21;;;;;;;6.00;5.55;;;;;;;19.99;51.92;100053.97;10370974;28;20443;-63
2022/05/11 00:24:22;;;;;;;4.70;4.25;;;;;;;19.98;52.62;100049.59;10370449;28;20041;-62
2022/05/11 00:29:24;;;;;;;5.43;4.90;;;;;;;19.98;52.18;100049.59;10373542;28;20245;-63
2022/05/11 00:34:25;;;;;;;5.60;5.10;;;;;;;19.95;52.49;100033.78;10371334;28;20512;-63
2022/05/11 00:39:26;;;;;;;6.53;4.85;;;;;;;19.86;53.12;100030.38;10370685;28;20428;-62
2022/05/11 00:44:28;;;;;;;5.57;5.13;;;;;;;19.83;53.10;100035.28;10372195;28;20702;-63
2022/05/11 00:49:51;;;;;;;5.68;5.18;;;;;;;19.81;54.13;100040.88;10371373;28;20041;-62
2022/05/11 00:54:59;;;;;;;6.35;5.55;;;;;;;19.72;55.02;100023.91;10373669;28;20055;-63
2022/05/11 01:00:05;;;;;;;5.57;5.07;;;;;;;19.71;54.97;100027.66;10376505;28;20041;-62
2022/05/11 01:05:08;;;;;;;5.32;4.82;;;;;;;19.67;55.44;100020.97;10378827;28;20045;-62
2022/05/11 01:10:10;;;;;;;;;;;;;;;19.65;55.59;100023.03;10378557;28;20049;-62
2022/05/11 01:15:16;;;;;;;5.63;5.13;;;;;;;19.62;55.01;100023.38;10379231;28;19927;-62
2022/05/11 01:20:21;;;;;;;5.80;5.28;;;;;;;19.58;55.16;100017.53;10377248;28;20059;-64
2022/05/11 01:25:23;;;;;;;6.45;5.75;;;;;;;19.47;55.78;99998.25;10366722;28;20072;-64
2022/05/11 01:30:25;;;;;;;6.40;5.27;;;;;;;19.50;56.10;100014.94;10387494;28;20049;-63
2022/05/11 01:36:04;;;;;;;7.10;6.45;;;;;;;19.47;56.06;100009.06;10374391;28;20707;-61
2022/05/11 01:41:13;;;;;;;6.72;5.72;;;;;;;19.45;56.02;100006.56;10375634;28;20055;-62
2022/05/11 01:46:16;;;;;;;6.03;5.43;;;;;;;19.39;55.85;100001.91;10373440;28;20524;-63
2022/05/11 01:51:18;;;;;;;6.67;5.83;;;;;;;19.33;56.64;100008.88;10383291;28;20217;-62
2022/05/11 01:56:23;;;;;;;8.35;5.80;;;;;;;19.24;56.84;100002.75;10386284;28;20375;-63
2022/05/11 02:01:27;;;;;;;6.47;5.88;;;;;;;19.20;56.78;100003.31;10383964;28;20064;-64
2022/05/11 02:11:48;;;;;;;7.25;6.55;;;;;;;19.06;58.45;99983.41;10373044;28;20142;-63
2022/05/11 02:16:50;;;;;;;7.05;6.28;;;;;;;18.94;58.54;99992.97;10372858;28;20782;-63
2022/05/11 02:21:51;;;;;;;6.20;5.70;;;;;;;18.78;58.60;99972.38;10371342;28;20049;-63
2022/05/11 02:26:53;;;;;;;7.55;6.93;;;;;;;18.87;59.49;99991.03;10336722;28;1097292;-63
2022/05/11 02:31:54;;;;;;;7.72;7.10;;;;;;;18.81;59.03;99999.81;10374688;28;20136;-62
2022/05/11 02:36:55;;;;;;;7.53;6.82;;;;;;;18.64;58.75;99974.84;10373041;28;20045;-62
2022/05/11 02:41:57;;;;;;;7.40;6.70;;;;;;;18.57;59.56;99982.03;10375025;28;20549;-62
2022/05/11 02:46:58;;;;;;;8.73;7.93;;;;;;;18.57;60.14;99992.81;10374055;28;20060;-63
2022/05/11 02:52:00;;;;;;;8.25;7.55;;;;;;;18.51;60.11;99988.09;10371932;28;20097;-63
2022/05/11 02:57:01;;;;;;;7.93;6.93;;;;;;;18.58;60.35;99990.94;10373179;28;20099;-62
2022/05/11 03:02:02;;;;;;;8.63;7.72;;;;;;;18.46;60.33;99985.13;10374233;28;20060;-62
2022/05/11 03:07:04;;;;;;;8.45;7.75;;;;;;;18.47;61.02;99987.66;10372956;28;20049;-62
2022/05/11 03:12:06;;;;;;;8.63;7.65;;;;;;;18.42;61.83;99983.81;10372922;28;20140;-62
2022/05/11 03:17:08;;;;;;;8.55;7.78;;;;;;;18.42;62.13;99999.97;10370966;28;20136;-63
2022/05/11 03:22:09;;;;;;;9.02;7.93;;;;;;;18.19;61.57;99968.50;10371204;28;20573;-63
2022/05/11 03:27:11;;;;;;;9.77;8.10;;;;;;;18.28;62.27;99983.56;10370059;28;20049;-64
2022/05/11 03:37:33;;;;;;;8.43;7.75;;;;;;;18.13;62.25;99963.84;10372454;28;20042;-62
2022/05/11 03:42:37;;;;;;;9.10;8.32;;;;;;;18.09;62.97;99957.13;10371398;28;20132;-66
2022/05/11 03:47:39;;;;;;;8.65;7.82;;;;;;;17.93;64.12;99950.03;10372780;28;20575;-63
2022/05/11 03:52:41;;;;;;;8.65;7.88;;;;;;;18.06;63.43;99973.66;10372572;28;20045;-62
2022/05/11 03:57:42;;;;;;;8.95;8.23;;;;;;;18.02;64.06;99968.63;10370171;28;20087;-67
2022/05/11 04:02:43;;;;;;;10.23;9.07;;;;;;;17.93;64.08;99969.69;10370632;28;20046;-62
2022/05/11 04:07:45;;;;;;;8.82;8.05;;;;;;;17.85;64.07;99964.34;10371327;28;20060;-63
2022/05/11 04:12:47;;;;;;;9.10;8.20;;;;;;;17.87;64.81;99967.69;10369865;28;20059;-64
2022/05/11 04:17:48;;;;;;;9.52;8.52;;;;;;;17.74;65.38;99959.34;10380161;28;20750;-61
2022/05/11 04:22:50;;;;;;;11.07;8.27;;;;;;;17.85;64.28;99986.72;10370413;28;20835;-62
2022/05/11 04:27:52;;;;;;;9.13;8.32;;;;;;;17.82;64.59;99972.78;10370669;28;20053;-63
2022/05/11 04:32:53;;;;;;;10.13;7.65;;;;;;;17.92;64.74;99962.63;10370839;28;20072;-64
2022/05/11 04:37:55;;;;;;;8.50;7.70;;;;;;;17.73;64.46;99944.22;10370536;28;20060;-62
2022/05/11 04:42:57;;;;;;;9.80;8.80;;;;;;;18.02;64.71;99970.50;10369241;28;20050;-64
2022/05/11 04:47:58;;;;;;;8.35;7.47;;;;;;;18.07;64.37;99959.19;10369151;28;20049;-64
2022/05/11 04:53:00;;;;;;;8.75;7.85;;;;;;;18.07;64.47;99954.63;10370350;28;20785;-62
2022/05/11 04:58:02;;;;;;;8.27;7.45;;;;;;;18.04;64.87;99963.06;10370176;28;20045;-62
2022/05/11 05:03:08;;;;;;;8.25;7.55;;;;;;;18.04;64.28;99973.81;10371132;28;20059;-63
2022/05/11 05:08:10;;;;;;;9.02;7.47;;;;;;;18.00;64.42;99976.06;10370071;28;20664;-63
2022/05/11 05:13:12;;;;;;;8.07;7.28;;;;;;;18.08;64.35;99982.41;10369035;28;20128;-63
2022/05/11 05:18:14;;;;;;;8.98;6.85;;;;;;;18.09;63.82;99984.91;10369386;28;20046;-63
2022/05/11 05:23:16;;;;;;;8.90;6.95;;;;;;;18.07;63.12;99967.25;10368064;28;20092;-62
2022/05/11 05:33:41;;;;;;;8.50;7.72;;;;;;;18.27;63.02;99983.75;10368790;28;20060;-62
2022/05/11 05:38:43;;;;;;;8.07;7.35;;;;;;;18.40;63.05;99981.31;10367757;28;20488;-62
2022/05/11 05:43:45;;;;;;;8.85;7.97;;;;;;;18.52;62.69;99984.41;10376307;28;20067;-63
2022/05/11 05:48:46;;;;;;;7.95;7.25;;;;;;;18.58;62.57;99980.97;10375161;28;20056;-62
2022/05/11 05:53:48;;;;;;;8.13;7.20;;;;;;;18.70;62.49;99992.97;10377800;28;20462;-62
2022/05/11 05:58:50;;;;;;;8.45;7.35;;;;;;;18.71;61.79;99983.06;10376603;28;20075;-62
2022/05/11 06:03:51;;;;;;;7.45;6.75;;;;;;;18.85;61.54;99989.50;10374309;28;20148;-63
2022/05/11 06:08:52;;;;;;;6.28;5.78;;;;;;;18.95;61.22;99995.50;10376040;28;20547;-63
2022/05/11 06:13:54;;;;;;;7.57;6.88;;;;;;;18.98;61.08;99978.94;10374686;28;23135;-61
2022/05/11 06:18:56;;;;;;;9.13;7.68;;;;;;;19.10;60.99;99991.97;10375074;28;20053;-62
2022/05/11 06:23:58;;;;;;;7.38;6.40;;;;;;;19.24;60.47;99991.94;10375185;28;20054;-62
2022/05/11 06:29:00;;;;;;;7.10;6.40;;;;;;;19.33;60.15;99986.47;10375523;28;20737;-62
2022/05/11 06:34:01;;;;;;;7.68;6.90;;;;;;;19.37;59.74;99972.41;10376533;28;20576;-61
2022/05/11 06:39:03;;;;;;;7.53;6.80;;;;;;;19.60;59.57;99993.03;10382994;28;20109;-64
2022/05/11 06:44:04;;;;;;;6.72;6.05;;;;;;;19.65;59.14;99969.03;10377608;28;20052;-63
2022/05/11 06:49:06;;;;;;;6.60;5.82;;;;;;;19.89;58.79;99964.31;10378905;28;20121;-63
2022/05/11 06:59:33;;;;;;;5.40;5.00;;;;;;;20.22;57.76;99982.72;10374788;28;20042;-62
2022/05/11 07:04:36;;;;;;;7.35;5.93;;;;;;;20.39;56.70;99965.22;10374726;28;20164;-61
2022/05/11 07:09:39;;;;;;;7.32;5.53;;;;;;;20.51;56.50;99967.38;10374195;28;20056;-62
2022/05/11 07:14:40;;;;;;;5.90;5.40;;;;;;;20.81;55.32;99978.91;10373110;28;20080;-64
2022/05/11 07:19:42;;;;;;;8.55;5.88;;;;;;;20.77;55.38;99964.91;10373466;28;20471;-62
2022/05/11 07:24:44;;;;;;;5.70;5.20;;;;;;;20.79;54.65;99976.38;10374252;28;20053;-68
2022/05/11 07:29:45;;;;;;;5.68;5.18;;;;;;;20.77;54.57;99950.56;10373770;28;20045;-63
2022/05/11 07:34:47;;;;;;;5.90;5.40;;;;;;;21.13;53.46;99961.19;10373092;28;20553;-63
2022/05/11 07:39:49;;;;;;;5.20;4.70;;;;;;;21.06;53.36;99927.84;10373581;28;20053;-63
2022/05/11 07:44:50;;;;;;;5.93;4.83;;;;;;;21.47;52.43;99961.34;10375944;28;20780;-62
2022/05/11 07:49:52;;;;;;;5.60;5.10;;;;;;;21.55;52.11;99958.50;10373289;28;20051;-62
2022/05/11 07:54:53;;;;;;;5.22;4.72;;;;;;;21.58;52.09;99941.84;10371448;28;20081;-62
2022/05/11 07:59:56;;;;;;;7.80;5.13;;;;;;;22.00;50.94;99944.44;10371681;28;20049;-62
2022/05/11 08:05:09;;;;;;;5.77;5.00;;;;;;;22.09;50.51;99942.38;10370802;28;20037;-63
2022/05/11 08:10:15;;;;;;;5.47;4.97;;;;;;;22.25;50.33;99937.38;10373323;28;20089;-62
2022/05/11 08:15:17;;;;;;;4.90;4.50;;;;;;;22.44;50.11;99939.50;10373346;28;20080;-63
2022/05/11 08:20:25;;;;;;;6.05;4.72;;;;;;;22.55;49.37;99937.00;10371573;28;20082;-61
2022/05/11 08:25:31;;;;;;;7.13;4.80;;;;;;;22.51;49.20;99930.31;10368789;28;20112;-61
2022/05/11 08:35:58;;;;;;;5.22;4.53;;;;;;;22.83;48.82;99924.22;10371713;28;20091;-61
2022/05/11 08:41:04;;;;;;;6.70;4.72;;;;;;;23.29;46.99;99924.09;10368056;28;20056;-62
2022/05/11 08:46:24;;;;;;;8.70;4.72;;;;;;;23.27;47.60;99914.53;10370349;28;20049;-62
2022/05/11 08:51:48;;;;;;;8.02;4.80;;;;;;;23.46;47.78;99912.75;10370737;28;20508;-63
2022/05/11 08:56:52;;;;;;;6.55;4.13;;;;;;;23.76;46.04;99909.44;10370007;28;20054;-62
2022/05/11 09:01:56;;;;;;;5.55;4.85;;;;;;;23.91;45.76;99917.34;10370437;28;20503;-64
2022/05/11 09:06:57;;;;;;;5.03;4.50;;;;;;;24.01;45.30;99887.78;10372255;28;20064;-65
2022/05/11 09:11:59;;;;;;;5.65;4.15;;;;;;;24.29;45.64;99895.50;10368927;28;20747;-62
2022/05/11 09:17:01;;;;;;;4.15;3.75;;;;;;;24.56;45.19;99886.25;10375050;28;20049;-63
2022/05/11 09:22:14;;;;;;;4.50;4.05;;;;;;;25.04;43.71;99880.94;10374507;28;20055;-63
2022/05/11 09:27:34;;;;;;;6.03;4.20;;;;;;;25.16;42.11;99899.22;10377433;28;20045;-61
2022/05/11 09:32:38;;;;;;;6.47;3.70;;;;;;;25.10;42.20;99891.97;10378279;28;20045;-63
2022/05/11 09:37:42;;;;;;;4.07;3.70;;;;;;;25.11;42.35;99883.56;10378477;28;20049;-62
2022/05/11 09:43:25;;;;;;;6.70;4.18;;;;;;;25.52;42.10;99884.75;10376481;28;20045;-64
2022/05/11 09:48:31;;;;;;;3.60;3.25;;;;;;;25.59;41.69;99874.56;10364719;28;20052;-63
2022/05/11 09:53:38;;;;;;;5.30;3.70;;;;;;;26.05;40.87;99866.78;10376059;28;20037;-62
2022/05/11 09:58:39;;;;;;;8.50;3.40;;;;;;;26.37;38.83;99847.34;10376988;28;20166;-64
2022/05/11 10:03:52;;;;;;;6.10;3.38;;;;;;;26.57;38.55;99857.06;10374947;28;20614;-64
2022/05/11 10:09:15;;;;;;;6.75;3.17;;;;;;;26.83;37.87;99844.84;10373803;28;20599;-63
2022/05/11 10:25:28;;;;;;;5.10;3.33;;;;;;;27.45;36.53;99826.94;10377197;28;20053;-62
2022/05/11 10:30:42;;;;;;;5.90;3.55;;;;;;;27.19;37.74;99831.06;10374921;28;20132;-62
2022/05/11 10:35:54;;;;;;;5.68;3.10;;;;;;;27.37;37.31;99811.78;10377677;28;20124;-63
2022/05/11 10:41:33;;;;;;;2.85;2.45;;;;;;;28.03;33.87;99794.88;10381959;28;20845;-64
2022/05/11 10:46:45;;;;;;;5.35;2.00;;;;;;;28.37;33.54;99786.59;10392459;28;20061;-62
2022/05/11 10:52:17;;;;;;;4.95;2.50;;;;;;;28.57;30.28;99775.09;10407411;28;20132;-62
2022/05/11 10:57:41;;;;;;;3.67;2.03;;;;;;;28.57;29.28;99773.19;10377790;28;20132;-64
2022/05/11 11:03:09;;;;;;;5.93;2.05;;;;;;;28.80;29.80;99768.53;10374969;28;20053;-63
2022/05/11 11:08:18;;;;;;;4.82;2.10;;;;;;;28.73;30.17;99762.44;10375945;28;20069;-63
2022/05/11 11:13:23;;;;;;;6.05;2.10;;;;;;;28.97;28.83;99756.69;10374095;28;20865;-61
2022/05/11 11:18:33;;;;;;;3.22;1.95;;;;;;;28.88;28.48;99737.94;10374374;28;20053;-62
2022/05/11 11:23:40;;;;;;;3.85;2.17;;;;;;;29.07;29.59;99740.34;10373361;28;20053;-63
2022/05/11 11:28:41;;;;;;;2.45;1.88;;;;;;;29.37;29.46;99739.03;10373767;28;20064;-63
2022/05/11 11:33:54;;;;;;;3.53;2.05;;;;;;;29.38;28.17;99719.56;10378490;28;20128;-62
2022/05/11 11:38:58;;;;;;;4.13;1.92;;;;;;;29.70;29.38;99709.69;10372770;28;20041;-62
2022/05/11 11:44:26;;;;;;;3.40;2.10;;;;;;;29.93;28.48;99717.50;10373939;28;20084;-63
2022/05/11 11:49:32;;;;;;;4.85;2.10;;;;;;;29.49;27.98;99723.22;10370377;28;20535;-63
2022/05/11 11:54:37;;;;;;;3.72;1.88;;;;;;;29.41;27.89;99718.22;10372676;28;20137;-63
2022/05/11 11:59:48;;;;;;;4.15;2.17;;;;;;;29.46;27.62;99710.03;10371895;28;20053;-65
2022/05/11 12:05:27;;;;;;;2.50;1.85;;;;;;;29.45;28.69;99675.47;10371614;28;20284;-62
2022/05/11 12:16:06;;;;;;;4.75;1.95;;;;;;;29.67;27.64;99680.84;10371076;28;20049;-63
2022/05/11 12:21:22;;;;;;;2.85;1.73;;;;;;;29.92;26.99;99682.97;10370032;28;20038;-63
2022/05/11 12:26:28;;;;;;;3.35;1.85;;;;;;;30.10;27.31;99695.41;10371682;28;20114;-63
2022/05/11 12:31:32;;;;;;;5.22;2.08;;;;;;;29.93;27.09;99675.56;10370497;28;20188;-62
2022/05/11 12:36:38;;;;;;;3.60;1.70;;;;;;;29.56;28.27;99687.34;10372614;28;20524;-62
2022/05/11 12:41:43;;;;;;;2.25;2.05;;;;;;;29.69;27.54;99675.09;10371389;28;20056;-62
2022/05/11 12:46:45;;;;;;;2.58;1.92;;;;;;;30.12;26.41;99673.19;10370393;28;20053;-62
2022/05/11 12:52:03;;;;;;;3.92;2.00;;;;;;;30.03;26.61;99667.38;10376256;28;20077;-63
2022/05/11 12:57:15;;;;;;;4.78;1.90;;;;;;;30.11;26.62;99680.56;10377207;28;20077;-64
2022/05/11 13:02:27;;;;;;;3.10;2.05;;;;;;;29.63;27.27;99649.56;10369826;28;20052;-62
2022/05/11 13:07:47;;;;;;;3.22;1.95;;;;;;;29.81;26.54;99656.56;10377595;28;20049;-63
2022/05/11 13:12:53;;;;;;;4.32;1.73;;;;;;;29.58;26.43;99641.31;10379364;28;20045;-62
2022/05/11 13:17:54;;;;;;;5.85;2.78;;;;;;;29.59;26.70;99649.28;10376098;28;20132;-63
2022/05/11 13:22:58;;;;;;;5.00;2.10;;;;;;;29.76;27.55;99648.28;10369841;28;20163;-63
2022/05/11 13:28:14;;;;;;;4.10;2.03;;;;;;;29.64;27.03;99628.47;10378880;28;20068;-63
2022/05/11 13:33:33;;;;;;;5.60;2.20;;;;;;;29.44;26.08;99621.78;10375162;28;20045;-63
2022/05/11 13:38:35;;;;;;;5.63;2.00;;;;;;;29.34;27.06;99622.50;10377130;28;20736;-62
2022/05/11 13:43:48;;;;;;;4.13;2.10;;;;;;;29.31;26.13;99635.94;10376248;28;20521;-63
2022/05/11 13:48:49;;;;;;;3.25;2.45;;;;;;;29.23;26.76;99629.84;10377585;28;20037;-62
2022/05/11 13:53:57;;;;;;;2.33;1.95;;;;;;;29.01;27.11;99638.09;10379024;28;20136;-63
2022/05/11 13:58:58;;;;;;;4.43;1.98;;;;;;;28.89;26.85;99586.25;10380506;28;20049;-63
2022/05/11 14:04:01;;;;;;;3.47;2.33;;;;;;;28.91;27.47;99611.47;10376505;28;20138;-62
2022/05/11 14:09:03;;;;;;;3.90;2.10;;;;;;;28.99;27.36;99590.16;10375772;28;20691;-64
2022/05/11 14:14:04;;;;;;;4.22;2.50;;;;;;;29.06;27.96;99588.00;10377410;28;20451;-61
2022/05/11 14:19:06;;;;;;;4.43;2.25;;;;;;;29.00;28.36;99597.28;10376281;28;20053;-62
2022/05/11 14:24:08;;;;;;;3.72;2.33;;;;;;;29.00;28.58;99594.53;10379497;28;20497;-64
2022/05/11 14:29:10;;;;;;;2.80;2.40;;;;;;;28.95;29.17;99584.38;10379784;28;20063;-62
2022/05/11 14:34:17;;;;;;;4.43;2.20;;;;;;;28.88;28.70;99570.88;10389391;28;20057;-63
2022/05/11 14:39:23;;;;;;;5.82;3.05;;;;;;;28.77;29.44;99571.91;10377858;28;20067;-62
2022/05/11 14:44:24;;;;;;;7.45;2.72;;;;;;;28.69;30.02;99564.16;10374754;28;20049;-63
2022/05/11 14:49:46;;;;;;;3.53;2.33;;;;;;;28.65;29.66;99574.81;10373844;28;20061;-63
2022/05/11 14:54:48;;;;;;;3.80;2.53;;;;;;;28.60;30.05;99555.59;10374290;28;20124;-62
2022/05/11 15:05:14;;;;;;;5.20;2.53;;;;;;;28.50;29.93;99537.13;10372821;28;20073;-63
2022/05/11 15:10:17;;;;;;;2.97;2.40;;;;;;;28.43;30.50;99544.72;10374800;28;20159;-62
2022/05/11 15:15:19;;;;;;;5.80;2.37;;;;;;;28.26;30.80;99516.66;10371538;28;20121;-62
2022/05/11 15:20:24;;;;;;;5.53;2.75;;;;;;;28.43;31.06;99539.25;10373803;28;20375;-61
2022/05/11 15:25:26;;;;;;;5.60;2.65;;;;;;;28.30;30.73;99536.91;10375902;28;20053;-63
2022/05/11 15:30:27;;;;;;;4.43;2.40;;;;;;;28.13;30.62;99529.63;10373919;28;20046;-62
2022/05/11 15:35:31;;;;;;;4.53;2.67;;;;;;;28.09;31.20;99534.00;10375023;28;20053;-62
2022/05/11 15:40:33;;;;;;;5.32;2.65;;;;;;;28.14;31.12;99528.56;10371779;28;20119;-62
2022/05/11 15:45:37;;;;;;;4.80;3.28;;;;;;;28.15;31.35;99513.81;10370743;28;20052;-62
2022/05/11 15:50:41;;;;;;;2.40;2.20;;;;;;;28.21;30.97;99522.91;10371430;28;20077;-61
2022/05/11 15:55:43;;;;;;;4.13;2.50;;;;;;;28.24;30.55;99514.19;10373920;28;20635;-62
2022/05/11 16:00:44;;;;;;;2.37;2.07;;;;;;;28.24;30.46;99510.59;10386998;28;20556;-61
2022/05/11 16:05:49;;;;;;;5.80;2.10;;;;;;;28.24;31.03;99513.34;10371365;28;20051;-61
2022/05/11 16:10:52;;;;;;;3.08;2.53;;;;;;;28.13;31.49;99513.22;10370893;28;20212;-62
2022/05/11 16:15:53;;;;;;;5.40;3.15;;;;;;;28.09;31.36;99503.91;10373434;28;20052;-64
2022/05/11 16:20:57;;;;;;;4.50;2.33;;;;;;;28.10;31.39;99508.28;10376802;28;20053;-62
2022/05/11 16:26:03;;;;;;;4.43;2.70;;;;;;;28.09;30.86;99501.16;10376242;28;20057;-62
2022/05/11 16:31:05;;;;;;;3.65;1.75;;;;;;;28.11;30.84;99504.47;10371325;28;20515;-62
2022/05/11 16:36:06;;;;;;;7.73;2.93;;;;;;;28.11;31.16;99496.25;10371389;28;20479;-62
2022/05/11 16:41:14;;;;;;;5.35;2.17;;;;;;;27.97;31.26;99503.19;10369673;28;20539;-62
2022/05/11 16:46:16;;;;;;;12.68;2.38;;;;;;;27.85;31.37;99497.88;10369408;28;20057;-63
2022/05/11 16:51:17;;;;;;;3.05;2.35;;;;;;;27.75;31.68;99489.53;10369691;28;20045;-60
2022/05/11 16:56:19;;;;;;;6.35;2.35;;;;;;;27.56;31.74;99470.72;10369615;28;20118;-61
2022/05/11 17:01:24;;;;;;;3.97;2.28;;;;;;;27.62;31.62;99479.81;10370708;28;20149;-63
2022/05/11 17:06:25;;;;;;;6.45;2.78;;;;;;;27.64;31.85;99488.59;10369404;28;20045;-63
2022/05/11 17:11:27;;;;;;;2.92;2.15;;;;;;;27.61;31.69;99468.06;10369935;28;20041;-62
2022/05/11 17:16:29;;;;;;;5.95;2.00;;;;;;;27.58;31.42;99484.13;10369993;28;20164;-63
2022/05/11 17:21:32;;;;;;;6.10;2.40;;;;;;;27.52;31.61;99469.59;10367475;28;20045;-63
2022/05/11 17:26:35;;;;;;;4.82;2.70;;;;;;;27.40;32.42;99472.47;10367924;28;20045;-62
2022/05/11 17:31:37;;;;;;;3.58;1.80;;;;;;;27.38;31.75;99479.25;10369109;28;20132;-62
2022/05/11 17:36:40;;;;;;;;;;;;;;;27.35;32.09;99491.50;10374036;28;20056;-62
2022/05/11 17:41:41;;;;;;;4.38;2.33;;;;;;;27.32;32.80;99490.13;10378416;28;19978;-62
2022/05/11 17:46:43;;;;;;;3.92;2.47;;;;;;;27.25;33.75;99497.63;10376490;28;20421;-63
2022/05/11 17:51:44;;;;;;;3.42;2.10;;;;;;;27.09;33.95;99482.09;10376094;28;20045;-62
2022/05/11 17:56:47;;;;;;;3.83;2.72;;;;;;;27.14;34.31;99498.56;10377403;28;20045;-61
2022/05/11 18:01:48;;;;;;;4.43;2.65;;;;;;;27.07;34.25;99501.47;10375844;28;20317;-62
2022/05/11 18:06:50;;;;;;;4.13;2.53;;;;;;;27.02;34.44;99498.66;10376876;28;20049;-70
2022/05/11 18:11:51;;;;;;;4.97;2.25;;;;;;;26.95;34.30;99496.09;10376057;28;20053;-62
2022/05/11 18:16:53;;;;;;;5.13;2.47;;;;;;;26.91;32.88;99502.31;10377803;28;20056;-62
2022/05/11 18:21:55;;;;;;;5.45;1.80;;;;;;;26.86;31.29;99510.41;10376211;28;20076;-62
2022/05/11 18:26:56;;;;;;;2.85;1.48;;;;;;;26.75;30.11;99515.75;10377335;28;20215;-62
2022/05/11 18:31:58;;;;;;;3.85;1.92;;;;;;;26.65;29.47;99515.53;10376360;28;20162;-62
2022/05/11 18:36:59;;;;;;;3.70;1.50;;;;;;;26.45;29.59;99510.53;10376906;28;20057;-62
2022/05/11 18:42:01;;;;;;;2.83;1.50;;;;;;;26.15;29.82;99486.28;10375165;28;20136;-62
2022/05/11 18:47:02;;;;;;;3.80;1.60;;;;;;;26.35;30.31;99543.94;10385242;28;20057;-62
2022/05/11 18:52:04;;;;;;;5.20;1.63;;;;;;;26.24;29.87;99551.13;10381433;28;20059;-62
2022/05/11 18:57:06;;;;;;;2.13;1.17;;;;;;;26.14;29.94;99574.63;10375912;28;20051;-62
2022/05/11 19:02:08;;;;;;;5.40;1.90;;;;;;;25.92;29.01;99551.53;10374989;28;20276;-62
2022/05/11 19:07:10;;;;;;;4.10;1.60;;;;;;;25.91;28.32;99571.72;10371213;28;20049;-63
2022/05/11 19:12:12;;;;;;;2.30;1.58;;;;;;;25.72;28.92;99578.38;10373736;28;20045;-62
2022/05/11 19:17:13;;;;;;;2.78;1.75;;;;;;;25.66;29.22;99585.63;10375450;28;20128;-62
2022/05/11 19:22:14;;;;;;;6.00;1.88;;;;;;;25.49;28.05;99576.50;10374910;28;20137;-63
2022/05/11 19:27:18;;;;;;;3.10;1.60;;;;;;;25.52;28.15;99604.13;10377109;28;20069;-64
2022/05/11 19:32:20;;;;;;;2.83;1.98;;;;;;;25.45;27.79;99605.31;10374884;28;20057;-62
2022/05/11 19:37:21;;;;;;;2.60;1.23;;;;;;;25.35;27.02;99604.00;10376147;28;20057;-61
2022/05/11 19:42:23;;;;;;;2.78;1.20;;;;;;;25.32;27.33;99604.47;10373786;28;20137;-63
2022/05/11 19:47:24;;;;;;;3.80;1.70;;;;;;;25.27;26.49;99628.84;10375779;28;20049;-62
2022/05/11 19:52:25;;;;;;;5.32;1.50;;;;;;;25.21;26.55;99621.59;10379236;28;20136;-62
2022/05/11 19:57:27;;;;;;;2.25;1.38;;;;;;;25.17;26.98;99615.78;10384625;28;20129;-62
2022/05/11 20:02:31;;;;;;;4.97;1.63;;;;;;;25.13;27.59;99620.06;10380572;28;20306;-62
2022/05/11 20:07:32;;;;;;;2.78;1.60;;;;;;;24.92;26.77;99616.00;10375175;28;20049;-61
2022/05/11 20:12:34;;;;;;;2.70;2.00;;;;;;;24.87;27.82;99610.41;10374463;28;20069;-62
2022/05/11 20:17:36;;;;;;;2.47;1.65;;;;;;;24.90;27.86;99626.28;10371710;28;20042;-63
2022/05/11 20:22:37;;;;;;;4.20;1.85;;;;;;;24.87;27.76;99629.47;10373072;28;20925;-61
2022/05/11 20:27:39;;;;;;;3.53;1.50;;;;;;;24.79;27.91;99635.25;10374108;28;20099;-61
2022/05/11 20:38:02;;;;;;;3.15;1.40;;;;;;;24.58;28.97;99634.72;10373870;28;20136;-61
2022/05/11 20:43:04;;;;;;;3.90;1.70;;;;;;;24.42;28.99;99619.81;10374575;28;20068;-63
2022/05/11 20:48:08;;;;;;;4.93;2.00;;;;;;;24.42;29.09;99635.31;10370976;28;20057;-62
2022/05/11 20:53:09;;;;;;;6.18;1.75;;;;;;;24.29;29.44;99620.84;10371734;28;20355;-62
2022/05/11 20:58:12;;;;;;;3.22;1.40;;;;;;;24.29;29.62;99634.44;10371627;28;20049;-61
2022/05/11 21:03:14;;;;;;;;;;;;;;;24.24;29.38;99623.41;10372108;28;20053;-62
2022/05/11 21:08:15;;;;;;;2.00;1.40;;;;;;;24.20;29.46;99629.53;10370374;28;20012;-60
2022/05/11 21:13:17;;;;;;;3.45;1.50;;;;;;;24.12;29.81;99625.22;10384967;28;20069;-62
2022/05/11 21:18:18;;;;;;;2.90;1.38;;;;;;;24.14;29.90;99633.97;10381719;28;20542;-62
2022/05/11 21:23:20;;;;;;;4.63;1.95;;;;;;;24.06;30.29;99637.03;10380411;28;20049;-62
2022/05/11 21:28:21;;;;;;;3.25;1.35;;;;;;;23.86;30.04;99616.34;10379292;28;20077;-62
2022/05/11 21:33:22;;;;;;;3.15;1.80;;;;;;;23.94;30.58;99643.19;10380199;28;20067;-63
2022/05/11 21:38:24;;;;;;;3.55;1.98;;;;;;;23.77;30.92;99642.13;10379897;28;20057;-64
2022/05/11 21:43:25;;;;;;;3.38;1.88;;;;;;;23.65;32.11;99653.72;10377887;28;20050;-63
2022/05/11 21:48:26;;;;;;;4.20;1.92;;;;;;;23.56;31.71;99643.38;10377945;28;20049;-60
2022/05/11 21:53:28;;;;;;;3.05;1.77;;;;;;;23.50;31.91;99660.56;10378202;28;20052;-62
2022/05/11 21:58:29;;;;;;;2.78;1.73;;;;;;;23.36;32.11;99654.41;10378307;28;20057;-63
2022/05/11 22:03:31;;;;;;;3.67;2.05;;;;;;;23.20;32.73;99628.66;10376724;28;20057;-63
2022/05/11 22:08:32;;;;;;;2.20;1.90;;;;;;;23.34;32.81;99664.66;10379071;28;20061;-60
2022/05/11 22:13:34;;;;;;;2.65;1.90;;;;;;;23.33;33.10;99672.00;10378839;28;20136;-62
2022/05/11 22:18:36;;;;;;;4.57;2.00;;;;;;;23.28;32.85;99664.50;10378386;28;20055;-63
2022/05/11 22:23:38;;;;;;;3.65;2.05;;;;;;;23.26;32.85;99663.06;10377475;28;20140;-62
2022/05/11 22:28:40;;;;;;;4.97;1.85;;;;;;;23.22;33.05;99665.38;10378372;28;20049;-63
2022/05/11 22:33:41;;;;;;;6.25;2.40;;;;;;;23.11;33.21;99658.78;10375008;28;20080;-62
2022/05/11 22:38:43;;;;;;;4.53;1.50;;;;;;;23.10;33.72;99651.72;10376386;28;20220;-63
2022/05/11 22:43:45;;;;;;;3.67;1.73;;;;;;;23.06;33.47;99661.31;10376312;28;20333;-64
2022/05/11 22:48:46;;;;;;;3.60;1.77;;;;;;;23.08;33.86;99658.38;10372601;28;20053;-62
2022/05/11 22:53:47;;;;;;;1.95;1.73;;;;;;;23.03;34.06;99666.31;10376991;28;20177;-62
2022/05/11 22:58:49;;;;;;;7.60;2.08;;;;;;;22.92;34.44;99666.00;10383170;28;20122;-61
2022/05/11 23:03:50;;;;;;;3.45;1.70;;;;;;;22.90;34.70;99673.50;10397067;28;20053;-62
2022/05/11 23:08:52;;;;;;;6.55;2.30;;;;;;;22.85;34.99;99669.78;10379290;28;20127;-61
2022/05/11 23:13:53;;;;;;;2.05;1.70;;;;;;;22.83;35.20;99680.84;10376198;28;20059;-62
2022/05/11 23:18:54;;;;;;;2.85;2.00;;;;;;;22.65;35.35;99665.31;10377591;28;20055;-61
2022/05/11 23:23:56;;;;;;;3.42;2.17;;;;;;;22.75;35.26;99700.94;10379061;28;20777;-62
2022/05/11 23:28:57;;;;;;;3.10;1.85;;;;;;;22.59;35.72;99680.59;10377010;28;20045;-62
2022/05/11 23:33:59;;;;;;;7.35;2.60;;;;;;;22.65;35.58;99699.75;10378480;28;20049;-62
2022/05/11 23:39:00;;;;;;;3.85;1.60;;;;;;;22.56;35.56;99686.44;10390777;28;20049;-63
2022/05/11 23:44:03;;;;;;;2.25;1.83;;;;;;;22.53;35.81;99695.00;10379268;28;20563;-63
2022/05/11 23:49:04;;;;;;;5.10;1.92;;;;;;;22.38;35.84;99692.56;10382754;28;20125;-63
2022/05/11 23:54:05;;;;;;;2.55;1.13;;;;;;;22.47;36.15;99716.72;10373643;28;20055;-62
2022/05/11 23:59:07;;;;;;;2.33;1.58;;;;;;;22.37;36.35;99723.44;10373339;28;20132;-62
